createdAt,value
2024-01-11T00:02:26.655Z,101974.25
2024-01-11T00:04:57.149Z,101976.81
2024-01-11T00:07:26.204Z,101978.47
2024-01-11T00:09:54.990Z,101976.69
2024-01-11T00:12:24.060Z,101985.19
2024-01-11T00:14:52.725Z,101985.97
2024-01-11T00:17:21.424Z,101988.53
2024-01-11T00:19:51.557Z,101986.78
2024-01-11T00:22:21.800Z,101985.03
2024-01-11T00:24:50.674Z,101984.22
2024-01-11T00:27:19.295Z,101981.59
2024-01-11T00:29:48.155Z,101986.59
2024-01-11T00:32:16.966Z,101973.69
2024-01-11T00:34:45.628Z,101979.72
2024-01-11T00:37:14.439Z,101969.47
2024-01-11T00:39:44.961Z,101976.38
2024-01-11T00:42:13.846Z,101978.91
2024-01-11T00:44:42.238Z,101984.84
2024-01-11T00:47:11.893Z,101980.69
2024-01-11T00:49:40.720Z,101987.50
2024-01-11T00:52:09.499Z,101991.72
2024-01-11T00:54:39.129Z,101984.84
2024-01-11T00:57:09.286Z,102000.22
2024-01-11T00:59:38.134Z,101995.09
2024-01-11T01:02:06.921Z,101997.56
2024-01-11T01:04:35.626Z,101994.94
2024-01-11T01:07:04.587Z,101994.94
2024-01-11T01:09:33.429Z,102003.41
2024-01-11T01:12:03.285Z,101997.41
2024-01-11T01:14:33.403Z,101991.38
2024-01-11T01:17:02.313Z,101991.38
2024-01-11T01:19:31.049Z,101996.50
2024-01-11T01:21:59.748Z,101991.38
2024-01-11T01:24:28.685Z,101996.50
2024-01-11T01:26:57.528Z,101998.28
2024-01-11T01:29:26.296Z,101993.97
2024-01-11T01:31:56.999Z,102001.63
2024-01-11T01:34:25.951Z,102002.44
2024-01-11T01:36:54.938Z,101997.31
2024-01-11T01:39:23.868Z,102002.34
2024-01-11T01:41:52.253Z,102000.66
2024-01-11T01:44:20.993Z,102004.84
2024-01-11T01:46:51.049Z,102004.84
2024-01-11T01:49:23.624Z,102006.41
2024-01-11T01:51:55.209Z,102003.69
2024-01-11T01:54:25.088Z,102007.81
2024-01-11T01:56:56.235Z,102017.19
2024-01-11T01:59:27.496Z,102023.03
2024-01-11T02:01:56.848Z,102025.50
2024-01-11T02:04:27.225Z,102027.16
2024-01-11T02:06:57.179Z,102022.84
2024-01-11T02:09:26.485Z,102025.34
2024-01-11T02:11:56.618Z,102023.53
2024-01-11T02:14:25.457Z,102020.91
2024-01-11T02:16:54.366Z,102010.66
2024-01-11T02:19:23.205Z,102020.03
2024-01-11T02:21:56.690Z,102016.50
2024-01-11T02:24:26.973Z,102013.81
2024-01-11T02:27:02.332Z,102012.94
2024-01-11T02:29:31.874Z,102011.19
2024-01-11T02:32:03.916Z,102014.63
2024-01-11T02:34:33.128Z,102016.22
2024-01-11T02:37:02.328Z,102028.13
2024-01-11T02:39:32.493Z,102022.13
2024-01-11T02:42:02.321Z,102027.25
2024-01-11T02:44:31.000Z,102027.19
2024-01-11T02:47:00.299Z,102026.28
2024-01-11T02:49:30.105Z,102032.22
2024-01-11T02:51:58.664Z,102026.22
2024-01-11T02:54:27.584Z,102033.00
2024-01-11T02:56:58.394Z,102029.66
2024-01-11T02:59:27.423Z,102026.22
2024-01-11T03:01:56.372Z,102026.09
2024-01-11T03:04:25.343Z,102030.44
2024-01-11T03:06:54.085Z,102018.41
2024-01-11T03:09:22.860Z,102023.53
2024-01-11T03:11:51.565Z,102009.97
2024-01-11T03:14:22.270Z,102004.84
2024-01-11T03:16:51.248Z,101998.84
2024-01-11T03:19:20.210Z,102003.22
2024-01-11T03:21:49.663Z,102004.84
2024-01-11T03:24:18.537Z,102002.19
2024-01-11T03:26:47.686Z,101999.53
2024-01-11T03:29:19.495Z,102001.13
2024-01-11T03:31:49.671Z,101995.00
2024-01-11T03:34:18.810Z,101994.06
2024-01-11T03:36:47.799Z,101990.53
2024-01-11T03:39:16.533Z,101994.66
2024-01-11T03:41:47.061Z,101993.88
2024-01-11T03:44:15.874Z,101988.78
2024-01-11T03:46:46.706Z,101994.66
2024-01-11T03:49:17.061Z,101994.59
2024-01-11T03:51:46.222Z,101996.28
2024-01-11T03:54:15.180Z,101996.97
2024-01-11T03:56:45.382Z,102001.09
2024-01-11T03:59:15.451Z,101997.66
2024-01-11T04:01:44.413Z,101996.69
2024-01-11T04:04:14.005Z,101994.13
2024-01-11T04:06:44.165Z,101996.63
2024-01-11T04:09:12.987Z,101990.59
2024-01-11T04:11:41.739Z,101991.38
2024-01-11T04:14:10.486Z,101994.75
2024-01-11T04:16:43.106Z,101994.75
2024-01-11T04:19:12.441Z,101994.66
2024-01-11T04:21:41.287Z,101991.22
2024-01-11T04:24:11.520Z,101999.69
2024-01-11T04:26:40.272Z,102013.25
2024-01-11T04:29:09.334Z,102013.25
2024-01-11T04:31:38.047Z,102016.63
2024-01-11T04:34:07.073Z,102022.63
2024-01-11T04:36:35.984Z,102018.19
2024-01-11T04:39:04.804Z,102018.19
2024-01-11T04:41:36.685Z,102006.19
2024-01-11T04:44:05.772Z,102014.69
2024-01-11T04:46:34.629Z,102021.56
2024-01-11T04:49:04.652Z,102022.44
2024-01-11T04:51:33.741Z,102014.69
2024-01-11T04:54:03.411Z,102027.47
2024-01-11T04:56:32.053Z,102030.03
2024-01-11T04:59:02.272Z,102023.13
2024-01-11T05:01:31.202Z,102026.50
2024-01-11T05:03:59.985Z,102023.88
2024-01-11T05:06:30.608Z,102022.88
2024-01-11T05:08:59.283Z,102019.44
2024-01-11T05:11:28.168Z,102019.44
2024-01-11T05:13:57.018Z,102015.97
2024-01-11T05:16:28.747Z,102019.44
2024-01-11T05:18:59.471Z,102021.19
2024-01-11T05:22:20.660Z,102027.88
2024-01-11T05:24:51.926Z,102027.88
2024-01-11T05:27:20.560Z,102023.47
2024-01-11T05:29:49.443Z,102020.81
2024-01-11T05:32:19.904Z,102026.81
2024-01-11T05:34:48.937Z,102029.31
2024-01-11T05:37:17.826Z,102037.75
2024-01-11T05:39:46.752Z,102033.50
2024-01-11T05:42:15.786Z,102044.66
2024-01-11T05:44:45.243Z,102036.00
2024-01-11T05:47:13.794Z,102037.56
2024-01-11T05:49:44.210Z,102038.38
2024-01-11T05:52:13.154Z,102040.06
2024-01-11T05:54:41.796Z,102036.50
2024-01-11T05:57:10.796Z,102047.63
2024-01-11T05:59:39.627Z,102052.72
2024-01-11T06:02:10.317Z,102047.63
2024-01-11T06:04:39.306Z,102054.34
2024-01-11T06:07:09.589Z,102045.69
2024-01-11T06:09:38.972Z,102050.69
2024-01-11T06:12:08.461Z,102051.38
2024-01-11T06:14:37.972Z,102054.72
2024-01-11T06:17:07.223Z,102062.22
2024-01-11T06:19:36.040Z,102062.22
2024-01-11T06:22:06.537Z,102061.34
2024-01-11T06:24:39.586Z,102064.69
2024-01-11T06:27:11.724Z,102062.84
2024-01-11T06:29:40.645Z,102079.84
2024-01-11T06:32:12.412Z,102082.31
2024-01-11T06:34:42.681Z,102085.66
2024-01-11T06:37:11.357Z,102084.78
2024-01-11T06:39:41.401Z,102095.00
2024-01-11T06:42:10.141Z,102104.53
2024-01-11T06:44:39.027Z,102095.97
2024-01-11T06:47:08.033Z,102109.63
2024-01-11T06:49:40.136Z,102114.00
2024-01-11T06:52:09.104Z,102117.44
2024-01-11T06:54:37.907Z,102121.66
2024-01-11T06:57:08.220Z,102120.88
2024-01-11T06:59:37.032Z,102125.09
2024-01-11T07:02:06.149Z,102131.00
2024-01-11T07:04:35.984Z,102119.88
2024-01-11T07:07:05.808Z,102138.56
2024-01-11T07:09:34.591Z,102138.38
2024-01-11T07:12:03.360Z,102132.38
2024-01-11T07:14:33.513Z,102135.63
2024-01-11T07:17:02.363Z,102138.09
2024-01-11T07:19:31.352Z,102139.00
2024-01-11T07:21:59.851Z,102134.63
2024-01-11T07:24:30.887Z,102131.88
2024-01-11T07:26:59.766Z,102142.91
2024-01-11T07:29:28.728Z,102135.13
2024-01-11T07:31:59.023Z,102151.38
2024-01-11T07:34:28.105Z,102151.38
2024-01-11T07:36:57.656Z,102135.13
2024-01-11T07:39:26.658Z,102147.03
2024-01-11T07:41:55.541Z,102154.72
2024-01-11T07:44:24.573Z,102149.59
2024-01-11T07:46:55.085Z,102154.72
2024-01-11T07:49:26.626Z,102156.50
2024-01-11T07:51:55.396Z,102158.25
2024-01-11T07:54:24.536Z,102157.56
2024-01-11T07:56:53.369Z,102153.34
2024-01-11T07:59:22.193Z,102155.09
2024-01-11T08:01:50.919Z,102168.88
2024-01-11T08:04:19.728Z,102163.97
2024-01-11T08:06:49.821Z,102155.47
2024-01-11T08:09:19.240Z,102160.78
2024-01-11T08:11:51.275Z,102168.66
2024-01-11T08:14:21.020Z,102168.97
2024-01-11T08:16:49.751Z,102170.03
2024-01-11T08:19:18.659Z,102166.09
2024-01-11T08:21:49.002Z,102174.97
2024-01-11T08:24:19.084Z,102178.78
2024-01-11T08:26:47.949Z,102171.56
2024-01-11T08:29:17.270Z,102173.94
2024-01-11T08:31:46.115Z,102176.44
2024-01-11T08:34:15.024Z,102169.34
2024-01-11T08:36:44.163Z,102163.53
2024-01-11T08:39:14.315Z,102164.44
2024-01-11T08:41:43.144Z,102164.41
2024-01-11T08:44:12.192Z,102162.41
2024-01-11T08:46:40.513Z,102160.31
2024-01-11T08:49:09.698Z,102151.44
2024-01-11T08:51:38.751Z,102149.53
2024-01-11T08:54:09.961Z,102160.50
2024-01-11T08:56:42.071Z,102154.41
2024-01-11T08:59:11.101Z,102153.88
2024-01-11T09:01:40.934Z,102161.69
2024-01-11T09:04:10.400Z,102164.59
2024-01-11T09:06:39.208Z,102151.78
2024-01-11T09:09:11.308Z,102159.63
2024-01-11T09:11:42.000Z,102162.56
2024-01-11T09:14:12.363Z,102172.84
2024-01-11T09:16:41.800Z,102168.63
2024-01-11T09:19:10.535Z,102173.88
2024-01-11T09:21:39.501Z,102173.88
2024-01-11T09:24:08.433Z,102179.31
2024-01-11T09:26:37.851Z,102171.94
2024-01-11T09:29:08.027Z,102170.38
2024-01-11T09:31:36.876Z,102173.41
2024-01-11T09:34:05.648Z,102179.44
2024-01-11T09:36:34.985Z,102172.59
2024-01-11T09:39:11.073Z,102185.25
2024-01-11T09:41:49.517Z,102189.56
2024-01-11T09:44:20.378Z,102194.16
2024-01-11T09:46:49.597Z,102182.06
2024-01-11T09:49:21.485Z,102188.28
2024-01-11T09:51:50.917Z,102193.03
2024-01-11T09:54:22.852Z,102184.94
2024-01-11T09:56:53.425Z,102182.75
2024-01-11T09:59:26.203Z,102188.19
2024-01-11T10:01:55.374Z,102177.13
2024-01-11T10:04:24.454Z,102178.38
2024-01-11T10:06:54.442Z,102167.31
2024-01-11T10:09:24.075Z,102164.75
2024-01-11T10:11:54.419Z,102169.16
2024-01-11T10:14:24.734Z,102165.38
2024-01-11T10:16:55.874Z,102144.66
2024-01-11T10:19:25.823Z,102147.16
2024-01-11T10:21:54.454Z,102159.06
2024-01-11T10:24:27.171Z,102161.00
2024-01-11T10:26:59.408Z,102155.06
2024-01-11T10:29:34.161Z,102155.84
2024-01-11T10:32:03.604Z,102168.13
2024-01-11T10:34:32.634Z,102166.28
2024-01-11T10:37:02.379Z,102181.06
2024-01-11T10:39:32.705Z,102186.16
2024-01-11T10:42:10.817Z,102182.44
2024-01-11T10:44:48.584Z,102179.56
2024-01-11T10:47:19.036Z,102187.09
2024-01-11T10:49:49.403Z,102171.59
2024-01-11T10:52:23.546Z,102145.59
2024-01-11T10:54:52.928Z,102150.28
2024-01-11T10:57:22.430Z,102145.88
2024-01-11T10:59:54.081Z,102143.44
2024-01-11T11:02:24.443Z,102141.34
2024-01-11T11:04:55.468Z,102147.75
2024-01-11T11:07:24.947Z,102135.88
2024-01-11T11:09:56.290Z,102156.03
2024-01-11T11:12:26.423Z,102154.72
2024-01-11T11:14:58.220Z,102133.59
2024-01-11T11:17:28.650Z,102128.66
2024-01-11T11:19:57.833Z,102109.88
2024-01-11T11:22:29.728Z,102109.75
2024-01-11T11:25:07.766Z,102110.28
2024-01-11T11:27:36.975Z,102106.16
2024-01-11T11:30:09.194Z,102109.88
2024-01-11T11:32:39.128Z,102115.41
2024-01-11T11:35:09.644Z,102108.66
2024-01-11T11:37:39.814Z,102097.50
2024-01-11T11:40:11.682Z,102095.66
2024-01-11T11:42:41.769Z,102098.31
2024-01-11T11:45:13.014Z,102107.28
2024-01-11T11:47:43.928Z,102098.78
2024-01-11T11:50:15.030Z,102093.56
2024-01-11T11:52:44.045Z,102095.19
2024-01-11T11:55:13.916Z,102098.66
2024-01-11T11:57:46.476Z,102103.88
2024-01-11T12:00:20.753Z,102098.72
2024-01-11T12:02:51.344Z,102089.28
2024-01-11T12:05:21.427Z,102084.03
2024-01-11T12:07:50.478Z,102086.63
2024-01-11T12:10:19.152Z,102077.91
2024-01-11T12:12:49.332Z,102066.56
2024-01-11T12:15:19.807Z,102077.16
2024-01-11T12:17:48.739Z,102078.19
2024-01-11T12:20:17.784Z,102075.75
2024-01-11T12:22:47.415Z,102076.00
2024-01-11T12:25:16.346Z,102082.94
2024-01-11T12:27:45.299Z,102077.56
2024-01-11T12:30:18.200Z,102073.97
2024-01-11T12:32:48.609Z,102077.53
2024-01-11T12:35:19.222Z,102071.41
2024-01-11T12:37:56.247Z,102059.50
2024-01-11T12:40:25.246Z,102066.53
2024-01-11T12:42:54.045Z,102068.47
2024-01-11T12:45:22.683Z,102062.31
2024-01-11T12:47:52.673Z,102070.16
2024-01-11T12:50:21.854Z,102062.41
2024-01-11T12:53:08.689Z,102053.72
2024-01-11T12:55:48.017Z,102049.47
2024-01-11T12:58:25.385Z,102047.09
2024-01-11T13:00:54.124Z,102054.19
2024-01-11T13:03:24.248Z,102055.97
2024-01-11T13:05:54.394Z,102059.41
2024-01-11T13:08:23.148Z,102060.09
2024-01-11T13:10:52.030Z,102055.53
2024-01-11T13:13:21.860Z,102067.75
2024-01-11T13:15:51.883Z,102063.41
2024-01-11T13:18:27.259Z,102058.94
2024-01-11T13:20:56.928Z,102054.66
2024-01-11T13:23:26.213Z,102050.56
2024-01-11T13:25:55.025Z,102053.28
2024-01-11T13:28:23.847Z,102051.44
2024-01-11T13:30:52.630Z,102054.88
2024-01-11T13:33:23.552Z,102054.81
2024-01-11T13:35:54.060Z,102051.16
2024-01-11T13:38:25.297Z,102060.72
2024-01-11T13:40:55.097Z,102059.91
2024-01-11T13:43:23.761Z,102060.09
2024-01-11T13:45:52.629Z,102068.91
2024-01-11T13:48:21.458Z,102057.72
2024-01-11T13:50:50.381Z,102058.41
2024-01-11T13:53:21.817Z,102056.75
2024-01-11T13:55:50.637Z,102062.19
2024-01-11T13:58:20.427Z,102062.41
2024-01-11T14:00:49.421Z,102058.06
2024-01-11T14:03:18.924Z,102055.50
2024-01-11T14:05:48.790Z,102060.84
2024-01-11T14:08:19.413Z,102070.38
2024-01-11T14:10:48.423Z,102067.75
2024-01-11T14:13:18.391Z,102064.31
2024-01-11T14:15:49.248Z,102072.88
2024-01-11T14:18:18.430Z,102071.00
2024-01-11T14:20:48.084Z,102074.31
2024-01-11T14:23:17.285Z,102079.56
2024-01-11T14:25:48.469Z,102083.06
2024-01-11T14:28:18.146Z,102082.03
2024-01-11T14:30:47.321Z,102072.28
2024-01-11T14:33:18.881Z,102074.72
2024-01-11T14:35:48.213Z,102069.19
2024-01-11T14:38:16.978Z,102074.00
2024-01-11T14:40:47.395Z,102086.75
2024-01-11T14:43:16.211Z,102090.00
2024-01-11T14:45:44.645Z,102084.56
2024-01-11T14:48:13.819Z,102073.22
2024-01-11T14:50:42.819Z,102066.91
2024-01-11T14:53:11.512Z,102075.41
2024-01-11T14:55:40.392Z,102082.94
2024-01-11T14:58:10.689Z,102073.03
2024-01-11T15:00:39.429Z,102072.63
2024-01-11T15:03:10.254Z,102073.00
2024-01-11T15:05:42.281Z,102069.91
2024-01-11T15:08:11.006Z,102076.31
2024-01-11T15:10:39.941Z,102070.66
2024-01-11T15:13:12.171Z,102071.94
2024-01-11T15:15:40.979Z,102063.69
2024-01-11T15:18:09.838Z,102069.97
2024-01-11T15:20:38.911Z,102083.88
2024-01-11T15:23:08.093Z,102089.19
2024-01-11T15:25:37.040Z,102089.28
2024-01-11T15:28:06.126Z,102090.38
2024-01-11T15:30:36.630Z,102079.41
2024-01-11T15:33:05.983Z,102085.66
2024-01-11T15:35:34.826Z,102087.69
2024-01-11T15:38:05.276Z,102090.63
2024-01-11T15:40:34.138Z,102095.25
2024-01-11T15:43:04.876Z,102087.00
2024-01-11T15:45:36.932Z,102083.13
2024-01-11T15:48:08.097Z,102086.03
2024-01-11T15:50:37.056Z,102082.97
2024-01-11T15:53:06.169Z,102081.75
2024-01-11T15:55:35.069Z,102078.72
2024-01-11T15:58:05.336Z,102090.41
2024-01-11T16:00:35.553Z,102090.03
2024-01-11T16:03:07.953Z,102085.38
2024-01-11T16:05:38.750Z,102085.03
2024-01-11T16:08:09.783Z,102101.88
2024-01-11T16:10:38.732Z,102103.25
2024-01-11T16:13:07.601Z,102099.47
2024-01-11T16:15:37.632Z,102109.50
2024-01-11T16:18:07.132Z,102114.31
2024-01-11T16:20:36.337Z,102102.00
2024-01-11T16:23:05.332Z,102101.75
2024-01-11T16:25:34.142Z,102104.09
2024-01-11T16:28:03.346Z,102109.88
2024-01-11T16:30:32.093Z,102125.09
2024-01-11T16:33:02.414Z,102138.53
2024-01-11T16:35:33.343Z,102147.75
2024-01-11T16:38:04.345Z,102161.31
2024-01-11T16:40:33.121Z,102158.59
2024-01-11T16:43:02.445Z,102167.03
2024-01-11T16:45:32.782Z,102161.75
2024-01-11T16:48:05.799Z,102164.19
2024-01-11T16:50:34.738Z,102159.66
2024-01-11T16:53:04.942Z,102156.13
2024-01-11T16:55:34.240Z,102148.28
2024-01-11T16:58:04.112Z,102151.63
2024-01-11T17:00:32.930Z,102155.84
2024-01-11T17:03:03.767Z,102154.09
2024-01-11T17:05:32.831Z,102137.69
2024-01-11T17:08:02.196Z,102141.09
2024-01-11T17:10:30.890Z,102133.31
2024-01-11T17:12:59.614Z,102134.09
2024-01-11T17:15:30.290Z,102140.84
2024-01-11T17:17:59.233Z,102144.25
2024-01-11T17:20:29.336Z,102146.78
2024-01-11T17:22:58.743Z,102147.50
2024-01-11T17:25:29.416Z,102137.94
2024-01-11T17:27:58.173Z,102144.72
2024-01-11T17:30:27.209Z,102147.16
2024-01-11T17:32:57.249Z,102133.34
2024-01-11T17:35:26.012Z,102141.81
2024-01-11T17:37:56.230Z,102144.28
2024-01-11T17:40:24.854Z,102142.38
2024-01-11T17:42:53.827Z,102153.34
2024-01-11T17:45:22.908Z,102152.31
2024-01-11T17:47:51.681Z,102158.13
2024-01-11T17:50:20.553Z,102157.13
2024-01-11T17:52:51.389Z,102154.41
2024-01-11T17:55:22.760Z,102160.34
2024-01-11T17:57:51.382Z,102157.72
2024-01-11T18:00:20.864Z,102162.75
2024-01-11T18:02:49.925Z,102161.00
2024-01-11T18:05:21.144Z,102164.31
2024-01-11T18:07:50.484Z,102157.31
2024-01-11T18:10:21.727Z,102164.16
2024-01-11T18:12:52.013Z,102167.56
2024-01-11T18:15:21.151Z,102161.53
2024-01-11T18:17:50.130Z,102160.72
2024-01-11T18:20:19.186Z,102166.69
2024-01-11T18:22:48.552Z,102170.03
2024-01-11T18:25:17.672Z,102168.16
2024-01-11T18:27:47.454Z,102157.69
2024-01-11T18:30:17.993Z,102154.16
2024-01-11T18:32:47.259Z,102145.47
2024-01-11T18:35:16.212Z,102155.75
2024-01-11T18:37:44.999Z,102144.53
2024-01-11T18:40:14.183Z,102137.47
2024-01-11T18:42:42.845Z,102145.19
2024-01-11T18:45:12.235Z,102148.50
2024-01-11T18:47:42.533Z,102140.56
2024-01-11T18:50:11.516Z,102143.84
2024-01-11T18:52:40.197Z,102151.34
2024-01-11T18:55:16.512Z,102152.97
2024-01-11T18:57:46.952Z,102154.41
2024-01-11T19:00:16.367Z,102153.38
2024-01-11T19:02:49.400Z,102155.72
2024-01-11T19:05:20.339Z,102148.66
2024-01-11T19:07:49.508Z,102153.66
2024-01-11T19:10:18.356Z,102158.63
2024-01-11T19:12:47.301Z,102161.88
2024-01-11T19:15:15.739Z,102159.94
2024-01-11T19:17:46.242Z,102162.44
2024-01-11T19:20:15.289Z,102159.78
2024-01-11T19:22:44.092Z,102168.16
2024-01-11T19:25:13.007Z,102162.84
2024-01-11T19:27:41.748Z,102158.44
2024-01-11T19:30:11.586Z,102155.78
2024-01-11T19:32:40.433Z,102164.28
2024-01-11T19:35:11.236Z,102160.69
2024-01-11T19:37:40.217Z,102166.38
2024-01-11T19:40:09.964Z,102167.91
2024-01-11T19:42:38.786Z,102172.91
2024-01-11T19:45:08.380Z,102187.28
2024-01-11T19:47:38.338Z,102186.25
2024-01-11T19:50:10.105Z,102191.13
2024-01-11T19:52:39.070Z,102189.25
2024-01-11T19:55:08.732Z,102200.25
2024-01-11T19:57:37.826Z,102201.88
2024-01-11T20:00:08.456Z,102196.75
2024-01-11T20:02:40.165Z,102206.84
2024-01-11T20:05:10.691Z,102210.91
2024-01-11T20:07:39.704Z,102210.75
2024-01-11T20:10:09.775Z,102213.25
2024-01-11T20:12:39.073Z,102200.41
2024-01-11T20:15:09.838Z,102210.75
2024-01-11T20:17:38.872Z,102207.31
2024-01-11T20:20:10.658Z,102215.19
2024-01-11T20:22:39.577Z,102214.41
2024-01-11T20:25:08.686Z,102213.59
2024-01-11T20:27:37.695Z,102215.34
2024-01-11T20:30:10.921Z,102212.00
2024-01-11T20:32:41.274Z,102220.66
2024-01-11T20:35:11.835Z,102222.44
2024-01-11T20:37:41.628Z,102227.91
2024-01-11T20:40:11.476Z,102228.06
2024-01-11T20:42:40.552Z,102231.69
2024-01-11T20:45:10.085Z,102225.00
2024-01-11T20:47:39.155Z,102218.28
2024-01-11T20:50:11.846Z,102208.16
2024-01-11T20:52:41.263Z,102210.06
2024-01-11T20:55:24.813Z,102206.69
2024-01-11T20:57:54.855Z,102207.66
2024-01-11T21:00:25.278Z,102205.97
2024-01-11T21:02:56.691Z,102204.38
2024-01-11T21:05:29.730Z,102201.81
2024-01-11T21:08:00.373Z,102207.03
2024-01-11T21:10:30.091Z,102207.91
2024-01-11T21:12:59.126Z,102207.03
2024-01-11T21:15:28.836Z,102212.09
2024-01-11T21:17:57.999Z,102212.97
2024-01-11T21:20:30.947Z,102205.25
2024-01-11T21:23:02.309Z,102196.59
2024-01-11T21:25:31.768Z,102208.63
2024-01-11T21:28:02.185Z,102208.63
2024-01-11T21:30:33.125Z,102203.50
2024-01-11T21:33:05.978Z,102207.03
2024-01-11T21:35:36.836Z,102212.34
2024-01-11T21:38:08.321Z,102214.16
2024-01-11T21:40:39.230Z,102215.94
2024-01-11T21:43:09.552Z,102222.13
2024-01-11T21:45:38.804Z,102215.41
2024-01-11T21:48:08.232Z,102207.84
2024-01-11T21:50:39.887Z,102206.16
2024-01-11T21:53:08.988Z,102207.19
2024-01-11T21:55:39.734Z,102208.94
2024-01-11T21:58:08.645Z,102213.28
2024-01-11T22:00:37.702Z,102216.66
2024-01-11T22:03:08.224Z,102226.94
2024-01-11T22:05:39.319Z,102224.31
2024-01-11T22:08:08.513Z,102235.41
2024-01-11T22:10:37.341Z,102235.31
2024-01-11T22:13:07.451Z,102243.13
2024-01-11T22:15:37.535Z,102243.03
2024-01-11T22:18:07.123Z,102248.97
2024-01-11T22:20:36.787Z,102245.59
2024-01-11T22:23:07.162Z,102253.41
2024-01-11T22:25:35.938Z,102253.41
2024-01-11T22:28:04.767Z,102250.72
2024-01-11T22:30:34.329Z,102250.72
2024-01-11T22:33:03.723Z,102262.72
2024-01-11T22:35:32.544Z,102264.41
2024-01-11T22:38:02.213Z,102262.59
2024-01-11T22:40:32.299Z,102266.00
2024-01-11T22:43:00.897Z,102259.09
2024-01-11T22:45:29.717Z,102250.41
2024-01-11T22:47:58.783Z,102248.66
2024-01-11T22:50:27.940Z,102239.97
2024-01-11T22:52:58.535Z,102243.34
2024-01-11T22:55:27.516Z,102233.78
2024-01-11T22:57:57.838Z,102239.66
2024-01-11T23:00:27.234Z,102234.41
2024-01-11T23:02:56.006Z,102239.47
2024-01-11T23:05:26.882Z,102234.19
2024-01-11T23:07:55.710Z,102233.22
2024-01-11T23:10:24.049Z,102237.38
2024-01-11T23:12:52.716Z,102228.72
2024-01-11T23:15:22.783Z,102228.56
2024-01-11T23:17:51.806Z,102231.03
2024-01-11T23:20:20.749Z,102233.53
2024-01-11T23:22:49.602Z,102233.44
2024-01-11T23:25:18.497Z,102235.94
2024-01-11T23:27:47.461Z,102236.72
2024-01-11T23:30:16.721Z,102234.09
2024-01-11T23:32:47.008Z,102234.97
2024-01-11T23:35:16.070Z,102238.34
2024-01-11T23:37:45.061Z,102241.69
2024-01-11T23:40:14.048Z,102241.69
2024-01-11T23:42:42.700Z,102237.25
2024-01-11T23:45:11.916Z,102240.66
2024-01-11T23:47:41.286Z,102246.50
2024-01-11T23:50:12.142Z,102242.97
2024-01-11T23:52:40.986Z,102234.31
2024-01-11T23:55:10.212Z,102239.44
2024-01-11T23:57:39.106Z,102236.78
